createdAt,value
2022-09-11T00:00:32.889Z,1.00
2022-09-11T00:03:19.897Z,1.00
2022-09-11T00:06:10.691Z,1.02
2022-09-11T00:09:00.325Z,0.88
2022-09-11T00:11:45.837Z,0.80
2022-09-11T00:14:31.765Z,0.90
2022-09-11T00:17:18.453Z,0.82
2022-09-11T00:20:05.074Z,1.10
2022-09-11T00:22:50.430Z,0.90
2022-09-11T00:25:37.446Z,1.05
2022-09-11T00:28:25.211Z,0.90
2022-09-11T00:31:17.355Z,1.10
2022-09-11T00:34:03.004Z,1.33
2022-09-11T00:36:48.263Z,1.00
2022-09-11T00:39:33.713Z,1.00
2022-09-11T00:42:19.083Z,1.38
2022-09-11T00:45:07.420Z,1.10
2022-09-11T00:47:58.459Z,0.88
2022-09-11T00:50:44.520Z,1.10
2022-09-11T00:53:34.193Z,0.90
2022-09-11T00:56:20.326Z,1.00
2022-09-11T00:59:07.166Z,0.90
2022-09-11T01:01:53.275Z,1.08
2022-09-11T01:04:38.455Z,1.30
2022-09-11T01:07:26.040Z,1.10
2022-09-11T01:10:12.402Z,0.90
2022-09-11T01:13:10.531Z,1.10
2022-09-11T01:16:09.445Z,1.10
2022-09-11T01:19:27.288Z,1.00
2022-09-11T01:22:27.615Z,1.00
2022-09-11T01:25:41.878Z,1.02
2022-09-11T01:28:44.682Z,1.02
2022-09-11T01:31:41.003Z,0.98
2022-09-11T01:34:45.419Z,1.10
2022-09-11T01:37:38.829Z,1.02
2022-09-11T01:40:46.029Z,1.10
2022-09-11T01:43:35.911Z,1.30
2022-09-11T01:46:24.404Z,1.10
2022-09-11T01:49:41.695Z,1.17
2022-09-11T01:52:34.675Z,1.02
2022-09-11T01:55:28.930Z,1.10
2022-09-11T01:58:21.378Z,1.27
2022-09-11T02:01:33.798Z,1.15
2022-09-11T02:04:24.479Z,1.20
2022-09-11T02:07:25.029Z,1.30
2022-09-11T02:10:17.220Z,1.23
2022-09-11T02:13:23.175Z,1.27
2022-09-11T02:16:16.830Z,1.23
2022-09-11T02:19:06.139Z,1.27
2022-09-11T02:21:52.452Z,0.93
2022-09-11T02:24:38.260Z,1.20
2022-09-11T02:27:27.336Z,0.93
2022-09-11T02:30:14.018Z,1.35
2022-09-11T02:32:59.507Z,1.20
2022-09-11T02:35:52.104Z,1.10
2022-09-11T02:38:53.156Z,0.95
2022-09-11T02:42:03.295Z,1.20
2022-09-11T02:44:58.134Z,0.98
2022-09-11T02:48:03.317Z,1.45
2022-09-11T02:51:03.771Z,1.00
2022-09-11T02:54:18.115Z,1.17
2022-09-11T02:57:10.157Z,1.58
2022-09-11T03:00:05.171Z,1.30
2022-09-11T03:08:22.581Z,1.60
2022-09-11T03:11:09.590Z,1.48
2022-09-11T03:13:57.569Z,1.55
2022-09-11T03:16:43.170Z,1.80
2022-09-11T03:19:28.955Z,1.45
2022-09-11T03:22:14.854Z,1.58
2022-09-11T03:25:00.258Z,1.70
2022-09-11T03:27:45.574Z,1.30
2022-09-11T03:30:32.148Z,1.05
2022-09-11T03:33:17.265Z,1.40
2022-09-11T03:36:03.396Z,1.30
2022-09-11T03:38:49.068Z,1.40
2022-09-11T03:41:34.379Z,1.42
2022-09-11T03:44:20.198Z,1.70
2022-09-11T03:47:06.139Z,1.35
2022-09-11T03:49:51.812Z,1.60
2022-09-11T03:52:37.616Z,1.63
2022-09-11T03:55:23.900Z,3.15
2022-09-11T03:58:09.694Z,1.65
2022-09-11T04:00:56.293Z,1.77
2022-09-11T04:03:42.433Z,1.55
2022-09-11T04:06:27.832Z,1.48
2022-09-11T04:09:13.327Z,1.70
2022-09-11T04:11:58.865Z,1.80
2022-09-11T04:14:44.703Z,1.75
2022-09-11T04:17:30.509Z,1.70
2022-09-11T04:20:15.827Z,1.85
2022-09-11T04:23:02.958Z,1.60
2022-09-11T04:25:49.140Z,1.50
2022-09-11T04:28:34.507Z,1.63
2022-09-11T04:31:21.248Z,1.48
2022-09-11T04:34:07.044Z,1.70
2022-09-11T04:36:52.159Z,1.60
2022-09-11T04:39:37.960Z,1.80
2022-09-11T04:42:23.144Z,1.50
2022-09-11T04:45:09.273Z,1.63
2022-09-11T04:47:54.553Z,1.58
2022-09-11T04:50:41.247Z,1.60
2022-09-11T04:53:26.556Z,1.50
2022-09-11T04:56:13.522Z,1.70
2022-09-11T04:59:02.212Z,1.80
2022-09-11T05:01:48.401Z,1.83
2022-09-11T05:04:33.607Z,1.65
2022-09-11T05:07:19.344Z,1.70
2022-09-11T05:10:05.841Z,1.55
2022-09-11T05:12:51.238Z,1.60
2022-09-11T05:15:36.431Z,1.58
2022-09-11T05:18:22.087Z,1.70
2022-09-11T05:21:16.786Z,1.75
2022-09-11T05:24:03.214Z,1.52
2022-09-11T05:26:48.673Z,1.70
2022-09-11T05:29:34.292Z,1.80
2022-09-11T05:32:19.812Z,1.70
2022-09-11T05:35:07.191Z,1.92
2022-09-11T05:37:52.946Z,1.60
2022-09-11T05:40:48.374Z,1.90
2022-09-11T05:43:34.169Z,1.70
2022-09-11T05:46:22.432Z,1.63
2022-09-11T05:49:08.035Z,1.60
2022-09-11T05:51:53.607Z,1.55
2022-09-11T05:54:39.166Z,1.70
2022-09-11T05:57:24.664Z,1.70
2022-09-11T06:00:11.060Z,1.90
2022-09-11T06:02:56.278Z,1.60
2022-09-11T06:05:42.734Z,1.60
2022-09-11T06:08:29.430Z,1.98
2022-09-11T06:11:17.279Z,1.60
2022-09-11T06:14:02.774Z,1.80
2022-09-11T06:16:48.688Z,1.50
2022-09-11T06:19:34.367Z,1.50
2022-09-11T06:22:21.395Z,1.60
2022-09-11T06:25:07.187Z,1.30
2022-09-11T06:27:52.647Z,1.63
2022-09-11T06:30:38.197Z,1.67
2022-09-11T06:33:24.002Z,1.75
2022-09-11T06:36:14.850Z,1.60
2022-09-11T06:38:59.933Z,1.60
2022-09-11T06:41:45.660Z,1.40
2022-09-11T06:44:31.139Z,1.52
2022-09-11T06:47:16.956Z,1.60
2022-09-11T06:50:02.515Z,1.70
2022-09-11T06:52:47.928Z,1.70
2022-09-11T06:55:34.281Z,1.30
2022-09-11T06:58:20.105Z,1.50
2022-09-11T07:01:11.857Z,1.50
2022-09-11T07:03:57.516Z,1.63
2022-09-11T07:06:44.406Z,1.60
2022-09-11T07:09:29.562Z,1.50
2022-09-11T07:12:15.229Z,1.50
2022-09-11T07:15:00.427Z,1.60
2022-09-11T07:17:45.837Z,1.48
2022-09-11T07:20:31.996Z,1.55
2022-09-11T07:23:17.278Z,1.73
2022-09-11T07:26:07.957Z,1.60
2022-09-11T07:28:55.913Z,1.88
2022-09-11T07:31:42.712Z,1.63
2022-09-11T07:34:28.648Z,1.40
2022-09-11T07:37:14.533Z,1.58
2022-09-11T07:39:59.842Z,1.60
2022-09-11T07:42:45.252Z,1.30
2022-09-11T07:45:30.626Z,1.38
2022-09-11T07:48:16.318Z,1.30
2022-09-11T07:51:07.089Z,1.40
2022-09-11T07:53:54.346Z,1.40
2022-09-11T07:56:41.599Z,1.40
2022-09-11T07:59:27.843Z,1.80
2022-09-11T08:02:13.373Z,1.20
2022-09-11T08:04:58.969Z,1.10
2022-09-11T08:07:44.243Z,1.00
2022-09-11T08:10:29.724Z,1.00
2022-09-11T08:13:15.130Z,1.10
2022-09-11T08:16:00.977Z,1.20
2022-09-11T08:18:48.143Z,1.00
2022-09-11T08:21:33.590Z,1.20
2022-09-11T08:24:20.324Z,1.27
2022-09-11T08:27:07.197Z,1.10
2022-09-11T08:29:54.053Z,0.90
2022-09-11T08:32:40.274Z,0.80
2022-09-11T08:35:26.153Z,1.15
2022-09-11T08:38:11.369Z,1.10
2022-09-11T08:40:59.930Z,1.00
2022-09-11T08:43:56.753Z,1.15
2022-09-11T08:46:45.953Z,1.30
2022-09-11T08:49:43.403Z,1.10
2022-09-11T08:52:29.534Z,1.30
2022-09-11T08:55:24.199Z,1.25
2022-09-11T08:58:24.685Z,1.27
2022-09-11T09:01:27.088Z,1.50
2022-09-11T09:04:40.701Z,1.90
2022-09-11T09:08:01.410Z,2.00
2022-09-11T09:10:56.832Z,2.70
2022-09-11T09:13:54.611Z,1.60
2022-09-11T09:17:08.161Z,1.73
2022-09-11T09:20:01.865Z,2.03
2022-09-11T09:23:04.204Z,1.70
2022-09-11T09:25:53.070Z,2.38
2022-09-11T09:28:46.700Z,1.60
2022-09-11T09:31:33.740Z,2.42
2022-09-11T09:34:25.466Z,2.05
2022-09-11T09:37:23.711Z,1.55
2022-09-11T09:40:10.919Z,1.60
2022-09-11T09:43:12.275Z,1.40
2022-09-11T09:46:27.684Z,1.50
2022-09-11T09:49:19.134Z,1.50
2022-09-11T09:52:18.408Z,1.50
2022-09-11T09:55:07.389Z,1.92
2022-09-11T09:57:53.379Z,1.60
2022-09-11T10:00:41.316Z,1.75
2022-09-11T10:03:26.881Z,2.05
2022-09-11T10:06:12.545Z,1.40
2022-09-11T10:09:01.410Z,1.58
2022-09-11T10:12:01.811Z,1.80
2022-09-11T10:14:57.635Z,2.22
2022-09-11T10:17:43.318Z,2.20
2022-09-11T10:20:31.805Z,2.10
2022-09-11T10:23:27.756Z,2.58
2022-09-11T10:26:31.288Z,2.63
2022-09-11T10:29:25.780Z,2.80
2022-09-11T10:32:18.044Z,2.50
2022-09-11T10:35:09.878Z,2.58
2022-09-11T10:38:15.073Z,2.60
2022-09-11T10:44:24.262Z,2.33
2022-09-11T10:47:18.584Z,2.30
2022-09-11T10:50:22.327Z,2.50
2022-09-11T10:53:20.060Z,2.50
2022-09-11T10:56:07.319Z,2.05
2022-09-11T10:59:00.245Z,2.42
2022-09-11T11:01:45.605Z,2.40
2022-09-11T11:04:32.876Z,2.28
2022-09-11T11:07:40.608Z,2.92
2022-09-11T11:11:03.892Z,2.90
2022-09-11T11:14:13.479Z,2.47
2022-09-11T11:17:12.157Z,2.67
2022-09-11T11:20:21.791Z,2.67
2022-09-11T11:23:17.908Z,2.50
2022-09-11T11:26:24.014Z,2.80
2022-09-11T11:29:33.658Z,2.97
2022-09-11T11:32:27.958Z,3.10
2022-09-11T11:35:23.298Z,2.00
2022-09-11T11:38:31.914Z,2.75
2022-09-11T11:41:46.258Z,2.95
2022-09-11T11:44:49.486Z,2.63
2022-09-11T11:47:43.057Z,2.10
2022-09-11T11:50:50.925Z,2.75
2022-09-11T11:53:41.981Z,2.00
2022-09-11T11:56:53.597Z,2.60
2022-09-11T11:59:55.320Z,2.10
2022-09-11T12:03:01.177Z,2.17
2022-09-11T12:05:46.460Z,2.25
2022-09-11T12:08:32.566Z,2.10
2022-09-11T12:11:29.764Z,2.00
2022-09-11T12:14:27.638Z,1.95
2022-09-11T12:17:28.206Z,2.10
2022-09-11T12:20:30.608Z,2.63
2022-09-11T12:23:30.869Z,2.10
2022-09-11T12:26:25.472Z,2.50
2022-09-11T12:29:14.528Z,2.40
2022-09-11T12:31:59.806Z,2.42
2022-09-11T12:34:45.170Z,2.40
2022-09-11T12:37:38.857Z,3.35
2022-09-11T12:40:32.357Z,2.40
2022-09-11T12:43:45.619Z,2.50
2022-09-11T12:46:31.330Z,2.17
2022-09-11T12:49:22.913Z,2.20
2022-09-11T12:52:24.823Z,2.60
2022-09-11T12:55:43.274Z,2.53
2022-09-11T12:58:39.069Z,2.35
2022-09-11T13:01:30.591Z,2.45
2022-09-11T13:04:21.129Z,2.55
2022-09-11T13:07:08.480Z,2.38
2022-09-11T13:09:54.374Z,2.25
2022-09-11T13:12:50.894Z,2.10
2022-09-11T13:15:42.105Z,2.20
2022-09-11T13:18:33.225Z,2.63
2022-09-11T13:21:21.119Z,2.22
2022-09-11T13:24:26.363Z,2.88
2022-09-11T13:27:28.278Z,2.30
2022-09-11T13:30:19.236Z,2.42
2022-09-11T13:33:11.218Z,2.60
2022-09-11T13:36:02.702Z,2.40
2022-09-11T13:38:54.448Z,2.60
2022-09-11T13:41:46.771Z,2.83
2022-09-11T13:44:53.111Z,2.58
2022-09-11T13:47:41.312Z,2.75
2022-09-11T13:50:27.605Z,3.15
2022-09-11T13:53:13.423Z,2.60
2022-09-11T13:55:58.530Z,2.90
2022-09-11T13:58:44.360Z,2.97
2022-09-11T14:01:30.924Z,3.10
2022-09-11T14:04:16.258Z,2.63
2022-09-11T14:07:02.672Z,2.92
2022-09-11T14:10:00.105Z,2.58
2022-09-11T14:12:58.652Z,2.80
2022-09-11T14:15:52.218Z,2.60
2022-09-11T14:18:48.542Z,2.60
2022-09-11T14:21:39.195Z,2.65
2022-09-11T14:24:29.207Z,3.10
2022-09-11T14:27:36.469Z,2.67
2022-09-11T14:30:36.265Z,2.80
2022-09-11T14:33:24.600Z,2.70
2022-09-11T14:36:19.368Z,2.30
2022-09-11T14:39:05.409Z,2.42
2022-09-11T14:41:52.164Z,2.90
2022-09-11T14:44:40.363Z,2.58
2022-09-11T14:47:28.211Z,2.80
2022-09-11T14:50:13.972Z,3.10
2022-09-11T14:52:59.797Z,2.70
2022-09-11T14:55:45.152Z,2.90
2022-09-11T14:58:32.700Z,2.60
2022-09-11T15:01:17.930Z,2.50
2022-09-11T15:04:03.757Z,2.47
2022-09-11T15:06:54.154Z,3.00
2022-09-11T15:09:40.148Z,2.70
2022-09-11T15:12:29.280Z,2.30
2022-09-11T15:15:14.775Z,2.72
2022-09-11T15:18:00.953Z,2.33
2022-09-11T15:20:46.281Z,2.38
2022-09-11T15:23:32.727Z,2.30
2022-09-11T15:26:18.231Z,2.70
2022-09-11T15:29:09.883Z,2.58
2022-09-11T15:31:55.487Z,2.60
2022-09-11T15:34:41.999Z,2.80
2022-09-11T15:37:27.408Z,2.60
2022-09-11T15:40:13.729Z,2.28
2022-09-11T15:42:59.135Z,2.80
2022-09-11T15:45:44.716Z,2.38
2022-09-11T15:48:31.082Z,2.70
2022-09-11T15:51:21.569Z,2.50
2022-09-11T15:54:07.235Z,3.25
2022-09-11T15:56:53.167Z,3.35
2022-09-11T15:59:40.040Z,3.40
2022-09-11T16:02:25.455Z,3.08
2022-09-11T16:05:10.936Z,3.25
2022-09-11T16:07:56.430Z,3.00
2022-09-11T16:10:42.192Z,3.20
2022-09-11T16:13:27.992Z,3.42
2022-09-11T16:16:14.391Z,3.45
2022-09-11T16:19:01.661Z,2.95
2022-09-11T16:21:47.319Z,3.10
2022-09-11T16:24:37.276Z,3.10
2022-09-11T16:27:24.394Z,3.10
2022-09-11T16:30:39.151Z,4.03
2022-09-11T16:33:15.759Z,3.15
2022-09-11T16:36:05.474Z,3.47
2022-09-11T16:38:52.508Z,3.50
2022-09-11T16:41:38.438Z,3.47
2022-09-11T16:44:23.646Z,3.60
2022-09-11T16:47:09.748Z,3.15
2022-09-11T16:50:10.641Z,3.20
2022-09-11T16:52:55.835Z,3.58
2022-09-11T16:55:42.599Z,3.25
2022-09-11T16:58:28.870Z,3.75
2022-09-11T17:01:17.805Z,3.17
2022-09-11T17:04:03.784Z,3.40
2022-09-11T17:06:48.979Z,3.05
2022-09-11T17:09:34.584Z,3.20
2022-09-11T17:12:21.349Z,3.60
2022-09-11T17:15:07.132Z,3.97
2022-09-11T17:17:54.638Z,3.70
2022-09-11T17:20:40.255Z,3.30
2022-09-11T17:23:26.257Z,3.95
2022-09-11T17:26:15.175Z,3.40
2022-09-11T17:29:03.462Z,3.85
2022-09-11T17:31:48.548Z,3.80
2022-09-11T17:34:34.448Z,3.85
2022-09-11T17:37:19.696Z,4.35
2022-09-11T17:40:07.337Z,3.95
2022-09-11T17:42:52.822Z,3.85
2022-09-11T17:45:38.106Z,3.70
2022-09-11T17:48:23.647Z,4.18
2022-09-11T17:51:15.543Z,3.70
2022-09-11T17:54:00.883Z,4.63
2022-09-11T17:56:46.368Z,3.65
2022-09-11T17:59:31.968Z,4.03
2022-09-11T18:02:18.394Z,3.53
2022-09-11T18:05:03.737Z,3.90
2022-09-11T18:07:50.925Z,4.45
2022-09-11T18:10:36.417Z,4.57
2022-09-11T18:13:22.076Z,4.18
2022-09-11T18:16:11.341Z,3.90
2022-09-11T18:18:57.366Z,4.07
2022-09-11T18:21:46.673Z,3.70
2022-09-11T18:24:35.022Z,4.00
2022-09-11T18:27:20.141Z,4.32
2022-09-11T18:30:06.493Z,4.20
2022-09-11T18:32:51.905Z,4.03
2022-09-11T18:35:38.715Z,4.38
2022-09-11T18:38:27.085Z,4.28
2022-09-11T18:41:14.457Z,4.53
2022-09-11T18:44:01.743Z,4.60
2022-09-11T18:46:47.930Z,4.50
2022-09-11T18:49:34.771Z,4.18
2022-09-11T18:52:25.505Z,4.70
2022-09-11T18:55:12.188Z,5.18
2022-09-11T18:58:00.177Z,4.10
2022-09-11T19:00:46.828Z,4.13
2022-09-11T19:03:32.254Z,4.03
2022-09-11T19:06:20.473Z,4.25
2022-09-11T19:09:12.425Z,4.00
2022-09-11T19:12:00.280Z,4.22
2022-09-11T19:14:45.952Z,4.20
2022-09-11T19:17:31.428Z,4.05
2022-09-11T19:20:16.922Z,4.43
2022-09-11T19:23:03.493Z,3.90
2022-09-11T19:25:49.068Z,4.20
2022-09-11T19:28:35.649Z,4.20
2022-09-11T19:31:24.075Z,4.75
2022-09-11T19:34:12.445Z,4.57
2022-09-11T19:36:57.685Z,4.82
2022-09-11T19:39:43.723Z,4.78
2022-09-11T19:42:29.296Z,4.85
2022-09-11T19:45:14.996Z,4.53
2022-09-11T19:48:00.411Z,4.80
2022-09-11T19:50:46.103Z,4.75
2022-09-11T19:53:31.528Z,4.88
2022-09-11T19:56:18.303Z,5.38
2022-09-11T19:59:04.690Z,5.25
2022-09-11T20:01:50.174Z,5.22
2022-09-11T20:04:35.673Z,5.72
2022-09-11T20:07:21.276Z,5.10
2022-09-11T20:10:08.215Z,5.22
2022-09-11T20:12:54.465Z,5.28
2022-09-11T20:15:40.747Z,5.38
2022-09-11T20:18:26.135Z,5.70
2022-09-11T20:21:15.478Z,5.93
2022-09-11T20:24:01.253Z,5.75
2022-09-11T20:26:46.563Z,5.57
2022-09-11T20:29:32.128Z,5.80
2022-09-11T20:32:18.206Z,5.88
2022-09-11T20:35:04.643Z,5.38
2022-09-11T20:37:50.779Z,5.35
2022-09-11T20:40:36.789Z,5.60
2022-09-11T20:43:22.457Z,6.18
2022-09-11T20:46:08.435Z,6.43
2022-09-11T20:48:54.250Z,6.30
2022-09-11T20:51:39.597Z,6.35
2022-09-11T20:54:25.027Z,6.80
2022-09-11T20:57:10.704Z,6.18
2022-09-11T20:59:56.017Z,6.43
2022-09-11T21:02:41.843Z,5.95
2022-09-11T21:05:27.451Z,6.80
2022-09-11T21:08:12.841Z,6.78
2022-09-11T21:11:02.248Z,6.93
2022-09-11T21:13:47.804Z,6.38
2022-09-11T21:16:33.604Z,6.32
2022-09-11T21:19:19.177Z,5.93
2022-09-11T21:22:04.602Z,7.07
2022-09-11T21:24:50.235Z,7.18
2022-09-11T21:27:36.109Z,8.40
2022-09-11T21:30:21.155Z,8.40
2022-09-11T21:33:06.672Z,7.82
2022-09-11T21:35:53.538Z,8.10
2022-09-11T21:38:39.376Z,7.65
2022-09-11T21:41:24.896Z,7.28
2022-09-11T21:44:10.412Z,7.28
2022-09-11T21:46:55.954Z,6.28
2022-09-11T21:49:41.172Z,6.32
2022-09-11T21:52:26.570Z,6.32
2022-09-11T21:55:13.437Z,5.65
2022-09-11T21:57:59.740Z,6.30
2022-09-11T22:00:48.126Z,6.07
2022-09-11T22:03:34.413Z,5.45
2022-09-11T22:06:21.449Z,6.15
2022-09-11T22:09:06.918Z,6.40
2022-09-11T22:11:53.371Z,6.07
2022-09-11T22:14:40.629Z,6.20
2022-09-11T22:17:25.843Z,5.88
2022-09-11T22:20:11.618Z,6.07
2022-09-11T22:22:58.746Z,5.65
2022-09-11T22:25:45.514Z,6.82
2022-09-11T22:28:31.490Z,6.30
2022-09-11T22:31:20.930Z,5.57
2022-09-11T22:34:07.398Z,5.63
2022-09-11T22:36:52.853Z,6.53
2022-09-11T22:39:38.215Z,6.63
2022-09-11T22:42:24.336Z,6.70
2022-09-11T22:45:10.382Z,6.88
2022-09-11T22:47:55.860Z,6.03
2022-09-11T22:50:41.540Z,5.75
2022-09-11T22:53:28.183Z,6.80
2022-09-11T22:56:13.848Z,7.43
2022-09-11T22:58:59.522Z,6.72
2022-09-11T23:01:45.154Z,6.10
2022-09-11T23:04:30.446Z,6.80
2022-09-11T23:07:15.998Z,6.70
2022-09-11T23:10:01.848Z,5.90
2022-09-11T23:12:47.282Z,7.20
2022-09-11T23:15:32.575Z,7.28
2022-09-11T23:18:18.832Z,6.57
2022-09-11T23:21:04.469Z,7.20
2022-09-11T23:23:54.249Z,7.22
2022-09-11T23:26:40.294Z,7.45
2022-09-11T23:29:25.876Z,7.97
2022-09-11T23:32:11.379Z,7.50
2022-09-11T23:34:56.822Z,7.43
2022-09-11T23:37:45.427Z,6.97
2022-09-11T23:40:33.379Z,8.35
2022-09-11T23:43:18.854Z,7.68
2022-09-11T23:46:04.663Z,7.07
2022-09-11T23:48:50.113Z,7.28
2022-09-11T23:51:35.616Z,6.85
2022-09-11T23:54:21.257Z,7.15
2022-09-11T23:57:06.938Z,6.55
2022-09-11T23:59:53.026Z,6.85
